Time;durP1;ratioP1;P1;durP2;ratioP2;P2;SDS_P1;SDS_P2;PMS_P1;PMS_P2;Temp;Humidity;BMP_temperature;BMP_pressure;BME280_temperature;BME280_humidity;BME280_pressure;Samples;Min_cycle;Max_cycle;Signal;HPM_P1;HPM_P2
2022/07/24 00:02:24;;;;;;;13.13;11.38;;;22.70;73.90;;;21.78;91.82;96357.16;4942390;28;20066;-67
2022/07/24 00:04:50;;;;;;;13.77;10.88;;;22.70;74.10;;;21.77;92.20;96352.84;4959222;28;20035;-67
2022/07/24 00:07:16;;;;;;;12.93;11.52;;;22.70;74.10;;;21.73;92.32;96363.28;4927972;28;20044;-67
2022/07/24 00:09:41;;;;;;;14.18;11.80;;;22.60;74.10;;;21.71;92.56;96362.69;4909633;28;20047;-66
2022/07/24 00:12:08;;;;;;;12.40;11.18;;;22.60;74.10;;;21.70;92.27;96361.88;4943035;28;20046;-66
2022/07/24 00:14:33;;;;;;;12.75;11.40;;;22.60;74.20;;;21.70;92.62;96355.72;4945743;28;20046;-66
2022/07/24 00:16:59;;;;;;;12.45;11.15;;;22.60;74.20;;;21.70;92.74;96353.03;4910366;28;20047;-66
2022/07/24 00:19:25;;;;;;;13.85;11.23;;;22.60;74.20;;;21.70;92.40;96350.34;4959459;28;20042;-67
2022/07/24 00:21:50;;;;;;;14.90;11.35;;;22.60;74.10;;;21.71;92.04;96351.97;4943287;28;20046;-67
2022/07/24 00:24:16;;;;;;;13.98;10.52;;;22.70;74.20;;;21.71;92.90;96351.97;4943154;28;20337;-67
2022/07/24 00:26:42;;;;;;;11.32;10.27;;;22.70;74.20;;;21.71;92.93;96346.63;4961001;28;20541;-67
2022/07/24 00:29:08;;;;;;;11.88;10.68;;;22.70;74.20;;;21.75;92.84;96349.63;4960037;28;20047;-67
2022/07/24 00:31:34;;;;;;;13.43;10.43;;;22.70;73.90;;;21.75;93.17;96355.78;4945228;28;20145;-67
2022/07/24 00:33:59;;;;;;;13.63;10.23;;;22.70;74.00;;;21.74;92.63;96362.19;4914013;29;20043;-66
2022/07/24 00:36:25;;;;;;;11.80;10.23;;;22.70;74.00;;;21.72;92.87;96369.66;4942153;28;20039;-67
2022/07/24 00:38:51;;;;;;;11.70;9.95;;;22.70;74.00;;;21.71;92.51;96360.81;4943808;28;20039;-66
2022/07/24 00:41:17;;;;;;;11.40;10.32;;;22.60;73.80;;;21.68;92.46;96358.66;4944000;28;20055;-67
2022/07/24 00:44:02;;;;;;;11.70;9.98;;;22.70;74.00;;;21.70;93.87;96361.88;4910550;29;20431;-67
2022/07/24 00:46:27;;;;;;;13.85;9.88;;;22.60;74.00;;;21.69;92.75;96354.09;4941678;28;20031;-66
2022/07/24 00:48:53;;;;;;;11.00;9.82;;;22.60;74.10;;;21.69;92.96;96349.56;4943476;28;20529;-66
2022/07/24 00:51:19;;;;;;;12.23;10.10;;;22.70;74.00;;;21.70;93.09;96351.16;4926624;28;20125;-67
2022/07/24 00:53:44;;;;;;;11.40;10.18;;;22.70;74.00;;;21.70;92.27;96359.19;4943880;28;20066;-66
2022/07/24 00:56:11;;;;;;;10.52;9.43;;;22.70;73.70;;;21.69;92.85;96354.09;4942403;28;20133;-66
2022/07/24 00:58:36;;;;;;;11.13;9.90;;;22.70;73.80;;;21.66;92.53;96354.59;4908688;28;20129;-66
2022/07/24 01:01:02;;;;;;;11.55;9.63;;;22.70;74.00;;;21.67;92.58;96356.22;4955236;28;20039;-67
2022/07/24 01:03:28;;;;;;;12.80;10.02;;;22.70;73.80;;;21.67;92.33;96358.91;4942510;28;20122;-67
2022/07/24 01:05:53;;;;;;;12.30;9.73;;;22.70;73.90;;;21.67;92.54;96356.22;4912579;28;20146;-66
2022/07/24 01:08:19;;;;;;;12.70;9.60;;;22.70;74.20;;;21.66;93.47;96357.28;4926499;28;20035;-67
2022/07/24 01:10:45;;;;;;;10.98;9.68;;;22.60;74.20;;;21.64;92.95;96360.22;4940882;28;20118;-66
2022/07/24 01:13:11;;;;;;;11.85;10.18;;;22.60;74.10;;;21.61;93.25;96357.25;4937696;28;20039;-67
2022/07/24 01:15:36;;;;;;;11.70;10.50;;;22.60;74.10;;;21.60;93.35;96360.97;4908928;28;20102;-66
2022/07/24 01:18:02;;;;;;;12.27;11.07;;;22.60;74.40;;;21.57;93.61;96356.94;4942553;28;20623;-66
2022/07/24 01:20:28;;;;;;;15.00;12.85;;;22.60;74.50;;;21.56;93.62;96354.50;4911471;28;20051;-66
2022/07/24 01:22:54;;;;;;;14.95;12.48;;;22.60;74.60;;;21.54;93.87;96357.44;4927827;29;20047;-67
2022/07/24 01:25:19;;;;;;;14.40;12.38;;;22.50;74.70;;;21.50;94.05;96360.84;4960246;28;20123;-67
2022/07/24 01:27:45;;;;;;;14.75;11.68;;;22.50;74.80;;;21.46;94.13;96355.19;4926544;28;20046;-66
2022/07/24 01:30:11;;;;;;;14.18;11.63;;;22.40;74.80;;;21.46;94.08;96354.38;4940816;28;20483;-67
2022/07/24 01:32:37;;;;;;;12.25;11.05;;;22.40;74.90;;;21.45;94.05;96358.94;4942704;28;20544;-66
2022/07/24 01:35:04;;;;;;;12.55;11.07;;;22.40;75.20;;;21.45;94.52;96358.13;4943737;28;20059;-66
2022/07/24 01:37:29;;;;;;;8.80;7.90;;;22.50;75.30;;;21.44;94.98;96349.28;4960387;28;20039;-66
2022/07/24 01:39:55;;;;;;;10.98;9.88;;;22.50;75.30;;;21.43;95.29;96350.34;4910132;29;20086;-66
2022/07/24 01:42:21;;;;;;;13.65;10.45;;;22.50;75.30;;;21.41;95.13;96349.81;4957475;28;20090;-67
2022/07/24 01:44:47;;;;;;;10.77;9.73;;;22.40;75.20;;;21.40;95.22;96350.84;4926705;28;20044;-67
2022/07/24 01:47:13;;;;;;;11.20;9.75;;;22.40;75.30;;;21.38;95.69;96351.13;4958745;28;20424;-66
2022/07/24 01:49:38;;;;;;;12.27;9.80;;;22.40;75.50;;;21.39;95.47;96354.59;4936256;28;20053;-66
2022/07/24 01:52:04;;;;;;;12.45;10.30;;;22.40;75.30;;;21.37;95.47;96354.84;4937271;28;20443;-66
2022/07/24 01:54:30;;;;;;;10.88;9.77;;;22.40;75.40;;;21.35;95.76;96348.13;4944157;28;20070;-66
2022/07/24 01:56:56;;;;;;;11.77;10.68;;;22.30;75.60;;;21.31;96.21;96342.47;4943912;28;20050;-65
2022/07/24 01:59:22;;;;;;;10.85;9.82;;;22.30;75.70;;;21.28;95.76;96342.97;4958155;28;20122;-65
2022/07/24 02:01:47;;;;;;;11.25;10.15;;;22.30;75.70;;;21.27;96.09;96345.88;4942092;28;20170;-65
2022/07/24 02:04:13;;;;;;;11.40;10.05;;;22.20;75.90;;;21.24;96.53;96347.19;4957830;28;20129;-65
2022/07/24 02:06:39;;;;;;;10.27;9.27;;;22.20;76.00;;;21.24;95.93;96344.50;4910152;28;20067;-65
2022/07/24 02:09:04;;;;;;;11.30;10.27;;;22.20;76.10;;;21.20;96.72;96339.91;4943554;28;20087;-65
2022/07/24 02:11:30;;;;;;;11.77;9.95;;;22.20;76.00;;;21.17;96.68;96335.84;4947371;28;20117;-65
2022/07/24 02:13:56;;;;;;;11.48;10.38;;;22.10;76.00;;;21.15;97.17;96334.50;4928660;28;20399;-65
2022/07/24 02:16:22;;;;;;;11.63;10.00;;;22.20;76.20;;;21.13;96.89;96331.25;4930196;28;20035;-65
2022/07/24 02:18:48;;;;;;;12.77;10.63;;;22.10;76.20;;;21.10;96.84;96330.69;4966966;28;20035;-65
2022/07/24 02:21:14;;;;;;;11.38;10.35;;;22.10;76.10;;;21.07;96.81;96331.22;4963612;28;20039;-65
2022/07/24 02:23:39;;;;;;;12.00;10.55;;;22.10;76.20;;;21.06;96.61;96329.59;4948364;28;20071;-65
2022/07/24 02:26:05;;;;;;;12.88;10.50;;;22.10;76.10;;;21.04;96.91;96330.88;4949016;28;20110;-65
2022/07/24 02:28:31;;;;;;;12.27;10.52;;;22.10;76.10;;;21.02;97.32;96324.97;4947884;28;20047;-65
2022/07/24 02:30:57;;;;;;;12.13;10.82;;;22.00;76.20;;;20.98;97.05;96326.53;4897197;28;20480;-65
2022/07/24 02:33:23;;;;;;;12.57;11.40;;;21.90;76.20;;;20.95;97.59;96332.38;4929130;28;20062;-66
2022/07/24 02:35:49;;;;;;;12.48;11.23;;;22.00;76.20;;;20.94;97.18;96317.38;4945812;28;20047;-66
2022/07/24 02:38:14;;;;;;;13.20;11.05;;;22.00;76.10;;;20.91;96.89;96331.25;4962293;28;20502;-65
2022/07/24 02:40:40;;;;;;;12.10;10.88;;;21.90;76.10;;;20.90;97.30;96330.44;4948143;28;20581;-65
2022/07/24 02:43:06;;;;;;;13.52;12.00;;;21.90;76.20;;;20.88;97.53;96331.75;4930564;28;20042;-65
2022/07/24 02:45:31;;;;;;;12.95;11.25;;;21.90;76.10;;;20.85;97.16;96326.91;4964115;28;20066;-67
2022/07/24 02:47:57;;;;;;;13.65;11.20;;;21.80;76.10;;;20.84;97.13;96328.78;4945521;28;20039;-65
2022/07/24 02:50:25;;;;;;;12.68;11.38;;;21.80;76.10;;;20.82;97.18;96332.72;4945565;28;22039;-66
2022/07/24 02:52:51;;;;;;;13.68;12.23;;;21.80;76.20;;;20.80;97.83;96336.47;4949434;28;20072;-66
2022/07/24 02:55:17;;;;;;;12.55;11.35;;;21.80;76.30;;;20.77;97.53;96330.81;4921683;28;20074;-66
2022/07/24 02:57:43;;;;;;;12.10;10.93;;;21.70;76.30;;;20.72;97.16;96338.75;4946049;28;20035;-66
2022/07/24 03:00:11;;;;;;;12.95;11.07;;;21.70;76.50;;;20.69;98.55;96334.72;4962996;28;20099;-66
2022/07/24 03:02:37;;;;;;;12.75;11.25;;;21.70;76.60;;;20.67;97.48;96338.69;4942475;28;20498;-66
2022/07/24 03:05:03;;;;;;;12.43;11.07;;;21.60;76.80;;;20.63;98.29;96337.56;4947863;28;20049;-66
2022/07/24 03:07:29;;;;;;;11.18;10.15;;;21.60;76.80;;;20.58;98.03;96338.28;4948265;28;20039;-66
2022/07/24 03:09:55;;;;;;;12.63;11.38;;;21.60;76.80;;;20.53;98.79;96340.91;4964060;28;20058;-66
2022/07/24 03:12:21;;;;;;;12.43;11.23;;;21.50;77.00;;;20.49;99.07;96339.78;4930290;28;20120;-66
2022/07/24 03:14:46;;;;;;;13.05;11.75;;;21.50;77.20;;;20.44;99.33;96337.03;4916152;29;20079;-66
2022/07/24 03:17:12;;;;;;;12.98;11.75;;;21.40;77.70;;;20.39;99.11;96344.97;4947670;28;20117;-66
2022/07/24 03:19:38;;;;;;;12.05;10.85;;;21.30;77.90;;;20.35;100.00;96349.94;4948310;28;20079;-66
2022/07/24 03:22:03;;;;;;;13.25;11.88;;;21.30;78.10;;;20.29;100.00;96342.94;4948108;28;20113;-66
2022/07/24 03:24:29;;;;;;;13.43;12.13;;;21.20;78.50;;;20.25;100.00;96341.00;4945598;28;20651;-66
2022/07/24 03:26:55;;;;;;;13.82;12.52;;;21.30;78.70;;;20.21;100.00;96345.22;4965991;28;20036;-66
2022/07/24 03:29:21;;;;;;;13.13;11.82;;;21.20;78.90;;;20.20;100.00;96339.06;4943081;28;20047;-66
2022/07/24 03:31:46;;;;;;;13.43;12.00;;;21.20;79.00;;;20.17;100.00;96340.34;4963932;28;20506;-67
2022/07/24 03:34:12;;;;;;;13.82;12.38;;;21.20;79.10;;;20.19;100.00;96340.91;4963396;28;20038;-66
2022/07/24 03:36:38;;;;;;;16.80;15.15;;;21.20;79.00;;;20.18;100.00;96344.63;4950343;28;20043;-66
2022/07/24 03:39:04;;;;;;;20.45;18.10;;;21.20;79.10;;;20.19;100.00;96345.44;4947343;28;20071;-66
2022/07/24 03:41:30;;;;;;;16.88;15.27;;;21.20;79.30;;;20.17;100.00;96345.69;4947248;28;20190;-66
2022/07/24 03:43:55;;;;;;;14.93;13.38;;;21.20;79.20;;;20.16;100.00;96352.09;4948159;28;20410;-66
2022/07/24 03:46:21;;;;;;;15.20;13.70;;;21.10;79.10;;;20.13;100.00;96343.72;4915858;28;20050;-66
2022/07/24 03:48:47;;;;;;;24.88;22.15;;;21.10;79.30;;;20.10;100.00;96347.69;4948354;28;20467;-66
2022/07/24 03:51:13;;;;;;;20.40;17.88;;;21.10;79.40;;;20.09;100.00;96351.41;4945909;28;20462;-67
2022/07/24 03:53:38;;;;;;;16.05;14.45;;;21.10;79.20;;;20.07;100.00;96347.38;4946683;28;25639;-66
2022/07/24 03:56:08;;;;;;;15.10;13.57;;;21.10;79.50;;;20.05;100.00;96355.63;4945720;28;20043;-66
2022/07/24 03:58:34;;;;;;;15.13;13.27;;;21.10;79.50;;;20.04;100.00;96354.03;4931245;28;20134;-66
2022/07/24 04:01:00;;;;;;;13.98;12.55;;;21.10;79.40;;;20.02;100.00;96348.13;4930325;28;20063;-65
2022/07/24 04:03:26;;;;;;;15.77;12.80;;;21.10;79.50;;;20.02;100.00;96349.97;4928458;28;20039;-66
2022/07/24 04:05:52;;;;;;;15.07;13.48;;;21.10;79.40;;;20.03;100.00;96357.75;4962913;28;20050;-66
2022/07/24 04:08:18;;;;;;;15.35;12.85;;;21.10;79.50;;;20.02;100.00;96361.47;4946193;28;20107;-66
2022/07/24 04:10:44;;;;;;;15.95;13.80;;;21.10;79.30;;;20.03;100.00;96360.41;4946753;28;20039;-65
2022/07/24 04:13:12;;;;;;;17.20;14.30;;;21.10;79.20;;;20.05;100.00;96365.50;4945974;28;20534;-66
2022/07/24 04:15:38;;;;;;;17.80;14.20;;;21.10;79.20;;;20.04;100.00;96369.22;4962691;28;20047;-65
2022/07/24 04:18:04;;;;;;;16.80;12.68;;;21.10;79.20;;;20.03;100.00;96368.44;4933697;28;20356;-65
2022/07/24 04:20:30;;;;;;;16.25;13.10;;;21.10;79.10;;;20.04;100.00;96359.34;4946072;28;20055;-65
2022/07/24 04:22:56;;;;;;;15.18;13.13;;;21.10;79.00;;;20.07;100.00;96363.41;4963636;28;20082;-65
2022/07/24 04:25:22;;;;;;;14.38;12.65;;;21.10;78.80;;;20.09;100.00;96367.44;4928109;28;20561;-66
2022/07/24 04:27:50;;;;;;;23.45;12.73;;;21.20;78.50;;;20.09;100.00;96362.09;4962300;28;20035;-65
2022/07/24 04:30:16;;;;;;;13.85;12.38;;;21.20;78.40;;;20.11;100.00;96359.19;4945185;28;20121;-65
2022/07/24 04:32:42;;;;;;;14.07;12.35;;;21.20;78.40;;;20.11;100.00;96360.00;4946479;28;20039;-66
2022/07/24 04:35:08;;;;;;;15.70;13.13;;;21.20;78.10;;;20.14;100.00;96364.03;4944196;28;20039;-66
2022/07/24 04:37:34;;;;;;;16.00;12.70;;;21.30;78.00;;;20.15;100.00;96365.69;4946596;28;20120;-66
2022/07/24 04:40:00;;;;;;;13.02;11.65;;;21.30;78.00;;;20.17;100.00;96368.94;4931166;28;20044;-66
2022/07/24 04:42:26;;;;;;;13.98;12.55;;;21.30;77.90;;;20.21;100.00;96363.91;4960919;28;20110;-65
2022/07/24 04:44:52;;;;;;;15.52;12.60;;;21.40;77.40;;;20.22;100.00;96376.22;4946504;28;20035;-66
2022/07/24 04:47:17;;;;;;;16.40;12.48;;;21.40;77.30;;;20.22;100.00;96374.34;4944023;28;20159;-65
2022/07/24 04:49:43;;;;;;;16.95;12.90;;;21.30;77.30;;;20.23;100.00;96372.47;4929198;28;20075;-66
2022/07/24 04:52:09;;;;;;;14.88;12.15;;;21.30;77.30;;;20.21;100.00;96377.25;4945309;28;20126;-66
2022/07/24 04:54:35;;;;;;;19.52;12.73;;;21.20;77.40;;;20.19;100.00;96372.16;4932111;29;20051;-65
2022/07/24 04:57:00;;;;;;;13.95;12.35;;;21.20;77.60;;;20.17;100.00;96376.94;4942849;28;20083;-67
2022/07/24 04:59:26;;;;;;;19.10;13.20;;;21.30;77.70;;;20.19;100.00;96382.84;4928623;28;20039;-66
2022/07/24 05:01:52;;;;;;;18.05;13.25;;;21.30;77.40;;;20.18;100.00;96387.38;4949266;28;20130;-67
2022/07/24 05:04:18;;;;;;;14.85;12.98;;;21.30;77.10;;;20.18;100.00;96387.38;4946051;28;20031;-64
2022/07/24 05:06:46;;;;;;;16.35;14.27;;;21.30;77.10;;;20.17;100.00;96385.75;4944001;28;20054;-65
2022/07/24 05:09:14;;;;;;;15.13;13.52;;;21.30;77.20;;;20.16;100.00;96392.16;4942932;28;20115;-65
2022/07/24 05:11:40;;;;;;;14.77;13.15;;;21.40;77.40;;;20.16;100.00;96388.69;4933897;28;20483;-65
2022/07/24 05:14:06;;;;;;;14.70;12.82;;;21.30;77.60;;;20.16;100.00;96394.81;4934346;28;20059;-65
2022/07/24 05:16:32;;;;;;;15.85;14.02;;;21.30;77.60;;;20.17;100.00;96395.63;4932430;28;20695;-65
2022/07/24 05:18:58;;;;;;;15.30;13.63;;;21.30;77.50;;;20.18;100.00;96395.38;4946577;28;20090;-65
2022/07/24 05:21:24;;;;;;;14.40;12.90;;;21.30;77.60;;;20.19;100.00;96393.53;4946691;28;20549;-66
2022/07/24 05:23:50;;;;;;;17.17;13.32;;;21.40;77.30;;;20.19;100.00;96394.34;4934579;28;20027;-66
2022/07/24 05:26:15;;;;;;;16.80;13.55;;;21.40;77.20;;;20.21;100.00;96388.75;4962912;28;20031;-65
2022/07/24 05:28:41;;;;;;;15.23;13.25;;;21.40;77.20;;;20.25;100.00;96391.75;4932409;28;20098;-65
2022/07/24 05:31:08;;;;;;;14.25;12.80;;;21.50;77.10;;;20.27;100.00;96397.66;4949513;28;20031;-65
2022/07/24 05:33:34;;;;;;;14.27;12.93;;;21.50;77.00;;;20.29;100.00;96401.69;4947615;28;20129;-65
2022/07/24 05:36:00;;;;;;;13.73;12.43;;;21.60;77.00;;;20.32;100.00;96403.88;4948144;28;20566;-65
2022/07/24 05:38:26;;;;;;;13.98;12.50;;;21.60;76.90;;;20.37;100.00;96403.19;4948370;28;20045;-65
2022/07/24 05:40:51;;;;;;;14.88;12.55;;;21.70;76.80;;;20.39;100.00;96401.06;4914342;29;20035;-66
2022/07/24 05:43:17;;;;;;;15.18;12.57;;;21.60;76.00;;;20.42;100.00;96401.41;4947223;28;20431;-66
2022/07/24 05:45:43;;;;;;;14.05;12.55;;;21.60;75.70;;;20.44;100.00;96401.16;4936216;28;20582;-66
2022/07/24 05:48:09;;;;;;;14.57;12.80;;;21.70;75.80;;;20.48;100.00;96407.63;4935294;28;20035;-66
2022/07/24 05:50:35;;;;;;;15.07;12.27;;;21.70;76.10;;;20.51;100.00;96401.81;4948718;28;20102;-66
2022/07/24 05:53:01;;;;;;;13.10;11.75;;;21.80;76.00;;;20.55;100.00;96402.94;4941840;28;20054;-63
2022/07/24 05:55:27;;;;;;;14.27;11.98;;;21.80;76.20;;;20.60;100.00;96405.69;4950594;28;20044;-64
2022/07/24 05:57:54;;;;;;;14.32;12.00;;;21.80;75.70;;;20.63;100.00;96407.06;4951873;28;20570;-63
2022/07/24 06:00:20;;;;;;;14.77;11.82;;;21.90;75.80;;;20.65;98.30;96397.75;4934320;28;20090;-64
2022/07/24 06:02:48;;;;;;;12.93;11.23;;;21.90;73.10;;;20.68;95.87;96397.25;4935880;28;20031;-65
2022/07/24 06:05:14;;;;;;;12.23;10.93;;;22.00;72.00;;;20.72;96.10;96405.59;4966488;28;20051;-66
2022/07/24 06:07:41;;;;;;;21.65;17.38;;;22.00;72.90;;;20.76;95.30;96396.84;4934688;28;20051;-68
2022/07/24 06:10:08;;;;;;;23.85;21.30;;;22.10;72.10;;;20.82;94.90;96394.22;4951132;28;20062;-67
2022/07/24 06:12:34;;;;;;;20.27;17.58;;;22.20;72.30;;;20.90;94.39;96396.50;4935926;28;20027;-66
2022/07/24 06:15:00;;;;;;;12.40;11.20;;;22.40;71.90;;;21.00;94.34;96400.09;4952221;28;20070;-67
2022/07/24 06:17:26;;;;;;;22.90;20.25;;;22.60;71.00;;;21.10;93.84;96399.44;4922426;28;20035;-68
2022/07/24 06:19:55;;;;;;;17.45;15.55;;;22.60;70.70;;;21.23;92.42;96404.41;4962493;28;20074;-68
2022/07/24 06:22:21;;;;;;;14.20;11.38;;;22.80;69.70;;;21.34;90.38;96406.19;4946941;28;20454;-66
2022/07/24 06:24:54;;;;;;;12.30;11.02;;;22.90;66.90;;;21.43;87.53;96397.72;4951073;28;20039;-71
2022/07/24 06:27:20;;;;;;;13.40;9.98;;;23.10;66.40;;;21.52;87.68;96401.59;4949691;28;20419;-68
2022/07/24 06:29:46;;;;;;;14.52;11.10;;;23.30;66.20;;;21.61;87.44;96400.88;4967376;28;20503;-67
2022/07/24 06:32:12;;;;;;;12.93;11.48;;;23.40;66.10;;;21.71;87.11;96395.63;4966126;28;20062;-67
2022/07/24 06:34:39;;;;;;;20.05;16.23;;;23.60;65.80;;;21.83;86.62;96397.34;4947142;28;20047;-68
2022/07/24 06:37:05;;;;;;;13.60;12.20;;;23.70;65.70;;;21.96;85.40;96399.66;4950133;28;20047;-67
2022/07/24 06:39:34;;;;;;;20.15;17.10;;;23.90;63.90;;;22.10;83.10;96392.00;4965243;28;20467;-67
2022/07/24 06:42:03;;;;;;;12.65;11.32;;;24.00;63.40;;;22.23;83.69;96395.09;4950617;28;20036;-71
2022/07/24 06:44:29;;;;;;;12.52;11.25;;;24.10;63.40;;;22.37;82.26;96395.44;4935025;29;20098;-67
2022/07/24 06:46:54;;;;;;;13.82;11.48;;;24.30;62.20;;;22.50;82.83;96392.34;4967602;28;20031;-70
2022/07/24 06:49:20;;;;;;;13.15;10.43;;;24.50;62.90;;;22.61;80.81;96393.22;4950435;28;20039;-69
2022/07/24 06:51:47;;;;;;;14.25;12.23;;;24.50;60.70;;;22.73;81.06;96396.53;4951618;28;20094;-70
2022/07/24 06:54:13;;;;;;;12.73;11.10;;;24.80;61.60;;;22.86;80.39;96395.31;4952025;28;20537;-69
2022/07/24 06:56:39;;;;;;;10.80;9.75;;;24.90;61.50;;;23.00;80.03;96391.06;4951119;28;20043;-69
2022/07/24 06:59:05;;;;;;;13.77;12.40;;;25.10;59.90;;;23.13;78.89;96396.00;4947508;28;20028;-73
2022/07/24 07:01:30;;;;;;;15.52;12.05;;;25.20;59.30;;;23.27;77.32;96392.81;4933586;28;20163;-66
2022/07/24 07:03:56;;;;;;;13.93;11.52;;;25.30;58.10;;;23.42;76.71;96398.25;4951192;28;20432;-66
2022/07/24 07:06:22;;;;;;;19.77;10.05;;;25.50;57.70;;;23.56;76.11;96395.91;4956217;28;20117;-67
2022/07/24 07:08:48;;;;;;;10.15;8.43;;;25.60;57.30;;;23.68;75.14;96389.22;4916001;28;20082;-67
2022/07/24 07:11:13;;;;;;;13.10;8.90;;;25.70;57.00;;;23.81;74.29;96396.78;4917101;29;20477;-68
2022/07/24 07:13:39;;;;;;;12.20;8.60;;;25.90;56.90;;;23.93;75.08;96390.34;4950381;28;20042;-69
2022/07/24 07:16:05;;;;;;;10.70;8.32;;;26.00;57.30;;;24.06;74.68;96393.34;4965976;28;20051;-70
2022/07/24 07:18:31;;;;;;;10.00;8.82;;;26.10;56.30;;;24.21;73.67;96389.84;4948292;28;21240;-69
2022/07/24 07:20:57;;;;;;;10.43;8.73;;;26.30;55.60;;;24.35;72.88;96401.72;4965989;28;20538;-69
2022/07/24 07:23:28;;;;;;;10.88;8.95;;;26.40;55.80;;;24.52;71.15;96398.75;4949465;28;20042;-66
2022/07/24 07:25:54;;;;;;;8.80;7.88;;;26.60;54.30;;;24.66;71.52;96391.72;4949420;28;20093;-69
2022/07/24 07:28:20;;;;;;;12.02;8.40;;;26.70;55.00;;;24.84;71.70;96397.63;4946929;28;20067;-70
2022/07/24 07:30:46;;;;;;;11.23;8.23;;;27.00;55.00;;;24.98;71.61;96396.00;4950376;28;20031;-69
2022/07/24 07:33:12;;;;;;;10.80;8.32;;;27.10;54.70;;;25.12;70.46;96398.94;4948595;28;20054;-69
2022/07/24 07:35:38;;;;;;;8.48;7.55;;;27.20;53.00;;;25.24;69.49;96396.75;4932899;28;20043;-70
2022/07/24 07:38:03;;;;;;;8.98;7.88;;;27.40;52.50;;;25.39;69.01;96388.63;4968526;28;20716;-70
2022/07/24 07:40:29;;;;;;;10.70;8.50;;;27.60;53.20;;;25.57;69.13;96396.09;4965220;28;20531;-70
2022/07/24 07:42:55;;;;;;;8.88;7.97;;;27.80;53.50;;;25.72;67.94;96391.72;4949597;28;20059;-70
2022/07/24 07:45:21;;;;;;;9.13;8.18;;;27.90;52.00;;;25.86;67.38;96398.13;4947963;28;20050;-67
2022/07/24 07:47:47;;;;;;;9.65;8.23;;;28.00;51.20;;;25.98;66.65;96403.16;4949870;28;20522;-68
2022/07/24 07:50:13;;;;;;;8.98;7.55;;;28.10;50.50;;;26.13;66.49;96393.09;4937023;28;20141;-67
2022/07/24 07:52:38;;;;;;;9.43;8.32;;;28.40;51.10;;;26.30;65.01;96397.28;4965435;28;20043;-68
2022/07/24 07:55:05;;;;;;;11.40;9.45;;;28.50;49.30;;;26.40;64.88;96398.03;4950649;28;20114;-66
2022/07/24 07:57:31;;;;;;;8.80;7.90;;;28.60;49.90;;;26.54;64.77;96398.19;4969408;28;20047;-66
2022/07/24 07:59:57;;;;;;;7.55;6.40;;;28.80;50.20;;;26.72;63.95;96392.09;4930779;28;20503;-65
2022/07/24 08:02:22;;;;;;;9.27;6.38;;;29.10;49.00;;;26.94;64.02;96396.22;4916164;28;20086;-65
2022/07/24 08:04:48;;;;;;;8.15;6.40;;;29.40;48.20;;;27.18;64.03;96397.06;4934977;28;20066;-66
2022/07/24 08:07:14;;;;;;;7.97;6.47;;;29.80;48.00;;;27.40;62.90;96394.63;4930819;28;20122;-66
2022/07/24 08:09:40;;;;;;;8.63;6.32;;;30.10;45.60;;;27.62;60.31;96390.56;4948864;28;20142;-66
2022/07/24 08:12:06;;;;;;;6.25;5.65;;;30.10;44.30;;;27.78;60.00;96394.69;4965613;28;20115;-65
2022/07/24 08:14:32;;;;;;;7.63;6.15;;;30.40;44.10;;;28.00;59.30;96392.22;4948700;28;20514;-68
2022/07/24 08:16:58;;;;;;;8.10;6.47;;;30.70;44.20;;;28.24;58.49;96391.31;4964804;28;20045;-68
2022/07/24 08:19:23;;;;;;;18.65;15.07;;;31.00;42.40;;;28.42;58.66;96398.63;4963594;28;20419;-66
2022/07/24 08:21:49;;;;;;;9.68;8.45;;;31.20;44.20;;;28.58;56.72;96396.50;4949560;28;20118;-68
2022/07/24 08:24:20;;;;;;;10.10;6.57;;;31.20;41.40;;;28.75;57.76;96398.66;4950629;28;20494;-68
2022/07/24 08:26:48;;;;;;;6.93;6.05;;;31.60;43.30;;;28.99;54.20;96393.09;4950518;29;20071;-69
2022/07/24 08:29:14;;;;;;;10.05;6.28;;;32.00;39.50;;;29.17;54.69;96387.56;4919105;28;20039;-68
2022/07/24 08:31:40;;;;;;;15.25;12.65;;;32.20;40.40;;;29.34;54.53;96397.00;4903321;28;20058;-68
2022/07/24 08:34:06;;;;;;;8.05;6.70;;;32.40;40.50;;;29.50;53.63;96390.22;4919169;28;20491;-68
2022/07/24 08:36:31;;;;;;;11.82;6.50;;;32.60;38.60;;;29.64;53.80;96384.75;4926287;28;20114;-68
2022/07/24 08:38:57;;;;;;;7.85;5.63;;;32.80;39.80;;;29.76;51.97;96388.56;4935008;29;20066;-68
2022/07/24 08:41:23;;;;;;;7.85;6.00;;;33.00;37.30;;;29.99;51.81;96392.13;4934314;28;20049;-68
2022/07/24 08:43:49;;;;;;;8.05;5.60;;;33.50;37.30;;;30.22;51.40;96390.28;4950984;28;20039;-67
2022/07/24 08:46:15;;;;;;;6.90;5.47;;;33.70;37.00;;;30.50;51.17;96388.22;4966208;28;20031;-70
2022/07/24 08:48:45;;;;;;;6.82;4.93;;;34.10;37.60;;;30.84;47.94;96392.31;4940501;28;20405;-65
2022/07/24 08:51:13;;;;;;;7.40;6.07;;;34.50;35.00;;;31.13;48.33;96380.94;4949318;28;20107;-67
2022/07/24 08:53:39;;;;;;;6.82;5.72;;;34.70;33.40;;;31.43;47.89;96385.53;4951037;28;20190;-67
2022/07/24 08:56:05;;;;;;;7.40;5.30;;;35.10;33.80;;;31.77;45.83;96373.19;4918470;29;20126;-66
2022/07/24 08:58:38;;;;;;;8.05;5.38;;;35.30;32.30;;;32.04;42.31;96378.31;4962715;28;20046;-66
2022/07/24 09:01:04;;;;;;;7.50;5.68;;;35.40;33.30;;;32.31;45.10;96370.97;4945141;28;20606;-69
2022/07/24 09:03:41;;;;;;;7.03;5.22;;;35.30;32.90;;;32.51;41.57;96373.81;4967155;28;20043;-69
2022/07/24 09:06:07;;;;;;;8.50;5.43;;;35.50;33.40;;;32.75;43.89;96373.28;4934636;29;20114;-69
2022/07/24 09:08:33;;;;;;;5.88;4.88;;;35.70;32.90;;;32.96;43.43;96376.16;4947995;28;20118;-68
2022/07/24 09:11:03;;;;;;;6.18;5.57;;;35.90;33.10;;;33.10;40.05;96365.03;4949627;28;20059;-68
2022/07/24 09:14:29;;;;;;;10.77;9.68;;;36.00;31.30;;;33.29;42.39;96361.91;4947773;28;20061;-67
2022/07/24 09:16:22;;;;;;;10.50;8.75;;;36.30;31.20;;;33.45;39.00;96361.03;4946660;28;20170;-66
2022/07/24 09:18:49;;;;;;;10.93;5.35;;;36.40;30.50;;;33.60;40.94;96359.66;4934588;28;20105;-67
2022/07/24 09:21:16;;;;;;;7.95;4.95;;;36.30;31.00;;;33.73;40.10;96360.56;4930986;28;20043;-66
2022/07/24 09:23:42;;;;;;;6.60;5.75;;;36.50;30.80;;;33.86;40.44;96359.53;4916235;28;20529;-66
2022/07/24 09:26:07;;;;;;;5.55;5.00;;;36.70;31.50;;;34.03;40.15;96359.41;4935308;28;20109;-66
2022/07/24 09:28:54;;;;;;;8.10;6.43;;;37.00;31.10;;;34.16;36.17;96362.16;4963021;28;20486;-66
2022/07/24 09:31:23;;;;;;;7.82;6.32;;;37.00;28.60;;;34.25;39.17;96360.19;4946125;28;20515;-66
2022/07/24 09:33:49;;;;;;;6.13;5.47;;;37.30;29.90;;;34.38;38.61;96359.13;4948727;28;20579;-66
2022/07/24 09:36:18;;;;;;;5.63;4.82;;;37.40;29.40;;;34.60;37.15;96360.66;4950169;28;20036;-66
2022/07/24 09:38:49;;;;;;;7.67;5.47;;;37.70;29.70;;;34.81;35.71;96355.13;4933640;28;20043;-66
2022/07/24 09:41:21;;;;;;;7.85;5.05;;;37.90;28.90;;;34.97;35.14;96359.66;4929959;28;20294;-66
2022/07/24 09:43:56;;;;;;;6.93;4.93;;;37.90;28.60;;;35.11;34.40;96359.31;4930198;28;20123;-66
2022/07/24 09:46:21;;;;;;;7.55;5.18;;;38.00;27.20;;;35.24;36.18;96355.44;4946338;28;20043;-66
2022/07/24 09:48:57;;;;;;;6.80;5.07;;;38.30;28.40;;;35.46;35.25;96353.41;4916783;29;20156;-66
2022/07/24 09:51:23;;;;;;;6.30;4.80;;;38.70;28.70;;;35.63;35.67;96352.38;4946692;28;20043;-68
2022/07/24 09:53:57;;;;;;;6.20;5.00;;;38.70;27.00;;;35.81;34.54;96351.78;4948795;28;20039;-66
2022/07/24 09:56:23;;;;;;;6.78;4.95;;;38.90;28.20;;;35.95;35.68;96347.88;4962009;28;20439;-65
2022/07/24 09:58:56;;;;;;;6.35;4.85;;;39.10;27.40;;;36.09;33.28;96340.09;4914349;29;20562;-66
2022/07/24 10:01:24;;;;;;;5.10;4.60;;;39.30;26.50;;;36.11;33.65;96341.34;4945318;28;20131;-69
2022/07/24 10:03:51;;;;;;;6.32;5.25;;;39.50;26.20;;;36.20;34.33;96346.66;4915682;29;20027;-68
2022/07/24 10:06:25;;;;;;;7.30;5.00;;;39.70;26.60;;;36.39;33.48;96344.09;4932700;28;20166;-67